Pagrindinis puslapis
METAR-TAF:

METAR-TAF

Oro uostai :

Ansbachas, Vokietija

platuma: 49-19N, ilguma: 010-38E, Aukštis: 467 m

Dabartinis oras

Ataskaita buvo paskelbta 2 valandos ir 41 minutes, ne 00:56 UTC
Vėjas 8 kt iš Pietų
Temperatūra 10°C
Drėgmė 57%
Slėgis 1013 hPa
Matomumas 10 km arba daugiau
Giedras dangus

METAR: ETEB 170056Z AUTO 19008KT 9999 CLR 10/02 A2991 RMK AO2 SLP143 T01010022 $

Laikas: 04:37 (03:37 UTC)


TAF: trūkstamas

Orai ataskaitas ir orų prognozės (METAR, TAF).

turimą stotys yra geltonos ir raudonos taškus žemėlapyje.

Perkelti pele per norėdami pamatyti stoties vardą.

Tada spustelėkite, norėdami matyti oro stebėjimo ir prognozės.

Norėdami pakeisti žemėlapį: spustelėkite ant žalios mygtukų su juodo kryžiaus žemyn,; žalią mygtuką su brūkšneliu, jei norite nutolinti; arba žalių rodyklių gretimoms žemėlapius.


METAR-TAF: